sensor_id;sensor_type;location;lat;lon;timestamp;temperature;humidity
24148;DHT22;12309;51.450;-2.624;2022-09-09T00:00:41;15.70;99.90
24148;DHT22;12309;51.450;-2.624;2022-09-09T00:03:34;15.70;99.90
24148;DHT22;12309;51.450;-2.624;2022-09-09T00:11:33;15.80;99.90
24148;DHT22;12309;51.450;-2.624;2022-09-09T00:14:03;15.80;99.90
24148;DHT22;12309;51.450;-2.624;2022-09-09T00:16:37;15.80;99.90
24148;DHT22;12309;51.450;-2.624;2022-09-09T00:19:41;15.80;99.90
24148;DHT22;12309;51.450;-2.624;2022-09-09T00:22:22;15.70;99.90
24148;DHT22;12309;51.450;-2.624;2022-09-09T00:24:53;15.70;99.90
24148;DHT22;12309;51.450;-2.624;2022-09-09T00:27:26;15.70;99.90
24148;DHT22;12309;51.450;-2.624;2022-09-09T00:30:00;15.70;99.90
24148;DHT22;12309;51.450;-2.624;2022-09-09T00:32:30;15.70;99.90
24148;DHT22;12309;51.450;-2.624;2022-09-09T00:35:11;15.60;99.90
24148;DHT22;12309;51.450;-2.624;2022-09-09T00:37:41;15.60;99.90
24148;DHT22;12309;51.450;-2.624;2022-09-09T00:40:32;15.40;99.90
24148;DHT22;12309;51.450;-2.624;2022-09-09T00:43:16;15.60;99.90
24148;DHT22;12309;51.450;-2.624;2022-09-09T00:48:22;15.50;99.90
24148;DHT22;12309;51.450;-2.624;2022-09-09T00:53:30;15.50;99.90
24148;DHT22;12309;51.450;-2.624;2022-09-09T00:56:11;15.50;99.90
24148;DHT22;12309;51.450;-2.624;2022-09-09T00:58:37;15.50;99.90
24148;DHT22;12309;51.450;-2.624;2022-09-09T01:01:11;15.50;99.90
24148;DHT22;12309;51.450;-2.624;2022-09-09T01:03:46;15.40;99.90
24148;DHT22;12309;51.450;-2.624;2022-09-09T01:11:38;15.40;99.90
24148;DHT22;12309;51.450;-2.624;2022-09-09T01:14:40;15.40;99.90
24148;DHT22;12309;51.450;-2.624;2022-09-09T01:17:25;15.40;99.90
24148;DHT22;12309;51.450;-2.624;2022-09-09T01:20:23;15.30;99.90
24148;DHT22;12309;51.450;-2.624;2022-09-09T01:28:14;14.80;99.90
24148;DHT22;12309;51.450;-2.624;2022-09-09T01:30:42;15.10;99.90
24148;DHT22;12309;51.450;-2.624;2022-09-09T01:33:13;15.10;99.90
24148;DHT22;12309;51.450;-2.624;2022-09-09T01:35:54;14.70;99.90
24148;DHT22;12309;51.450;-2.624;2022-09-09T01:38:21;14.40;99.90
24148;DHT22;12309;51.450;-2.624;2022-09-09T01:40:48;14.90;99.90
24148;DHT22;12309;51.450;-2.624;2022-09-09T01:43:14;14.90;99.90
24148;DHT22;12309;51.450;-2.624;2022-09-09T01:45:41;14.90;99.90
24148;DHT22;12309;51.450;-2.624;2022-09-09T01:48:07;14.80;99.90
24148;DHT22;12309;51.450;-2.624;2022-09-09T01:50:33;14.80;99.90
24148;DHT22;12309;51.450;-2.624;2022-09-09T01:52:59;14.80;99.90
24148;DHT22;12309;51.450;-2.624;2022-09-09T01:55:33;14.80;99.90
24148;DHT22;12309;51.450;-2.624;2022-09-09T02:00:36;14.80;99.90
24148;DHT22;12309;51.450;-2.624;2022-09-09T02:03:24;14.80;99.90
24148;DHT22;12309;51.450;-2.624;2022-09-09T02:08:42;14.80;99.90
24148;DHT22;12309;51.450;-2.624;2022-09-09T02:11:16;14.80;99.90
24148;DHT22;12309;51.450;-2.624;2022-09-09T02:13:48;14.90;99.90
24148;DHT22;12309;51.450;-2.624;2022-09-09T02:16:22;14.90;99.90
24148;DHT22;12309;51.450;-2.624;2022-09-09T02:18:52;15.00;99.90
24148;DHT22;12309;51.450;-2.624;2022-09-09T02:21:21;14.90;99.90
24148;DHT22;12309;51.450;-2.624;2022-09-09T02:23:48;15.00;99.90
24148;DHT22;12309;51.450;-2.624;2022-09-09T02:26:19;15.00;99.90
24148;DHT22;12309;51.450;-2.624;2022-09-09T02:28:49;15.00;99.90
24148;DHT22;12309;51.450;-2.624;2022-09-09T02:31:18;14.80;99.90
24148;DHT22;12309;51.450;-2.624;2022-09-09T02:33:50;15.10;99.90
24148;DHT22;12309;51.450;-2.624;2022-09-09T02:36:19;15.10;99.90
24148;DHT22;12309;51.450;-2.624;2022-09-09T02:38:47;15.00;99.90
24148;DHT22;12309;51.450;-2.624;2022-09-09T02:41:24;15.10;99.90
24148;DHT22;12309;51.450;-2.624;2022-09-09T02:43:51;15.10;99.90
24148;DHT22;12309;51.450;-2.624;2022-09-09T02:54:28;15.20;99.90
24148;DHT22;12309;51.450;-2.624;2022-09-09T02:57:10;15.10;99.90
24148;DHT22;12309;51.450;-2.624;2022-09-09T02:59:37;14.70;99.90
24148;DHT22;12309;51.450;-2.624;2022-09-09T03:02:03;15.10;99.90
24148;DHT22;12309;51.450;-2.624;2022-09-09T03:04:29;15.20;99.90
24148;DHT22;12309;51.450;-2.624;2022-09-09T03:06:57;15.10;99.90
24148;DHT22;12309;51.450;-2.624;2022-09-09T03:09:23;15.00;99.90
24148;DHT22;12309;51.450;-2.624;2022-09-09T03:11:49;15.20;99.90
24148;DHT22;12309;51.450;-2.624;2022-09-09T03:14:15;15.20;99.90
24148;DHT22;12309;51.450;-2.624;2022-09-09T03:16:42;14.40;99.90
24148;DHT22;12309;51.450;-2.624;2022-09-09T03:19:08;15.50;99.90
24148;DHT22;12309;51.450;-2.624;2022-09-09T03:21:34;15.20;99.90
24148;DHT22;12309;51.450;-2.624;2022-09-09T03:24:01;15.00;99.90
24148;DHT22;12309;51.450;-2.624;2022-09-09T03:26:29;15.10;99.90
24148;DHT22;12309;51.450;-2.624;2022-09-09T03:28:55;15.20;99.90
24148;DHT22;12309;51.450;-2.624;2022-09-09T03:31:21;15.10;99.90
24148;DHT22;12309;51.450;-2.624;2022-09-09T03:33:47;15.20;99.90
24148;DHT22;12309;51.450;-2.624;2022-09-09T03:36:13;15.40;99.90
24148;DHT22;12309;51.450;-2.624;2022-09-09T03:38:40;15.20;99.90
24148;DHT22;12309;51.450;-2.624;2022-09-09T03:41:06;15.20;99.90
24148;DHT22;12309;51.450;-2.624;2022-09-09T03:43:33;15.20;99.90
24148;DHT22;12309;51.450;-2.624;2022-09-09T03:45:59;15.00;99.90
24148;DHT22;12309;51.450;-2.624;2022-09-09T03:48:25;15.20;99.90
24148;DHT22;12309;51.450;-2.624;2022-09-09T03:50:54;15.20;99.90
24148;DHT22;12309;51.450;-2.624;2022-09-09T03:53:22;15.00;99.90
24148;DHT22;12309;51.450;-2.624;2022-09-09T03:55:52;15.40;99.90
24148;DHT22;12309;51.450;-2.624;2022-09-09T03:58:21;15.20;99.90
24148;DHT22;12309;51.450;-2.624;2022-09-09T04:00:58;14.90;99.90
24148;DHT22;12309;51.450;-2.624;2022-09-09T04:03:24;15.10;99.90
24148;DHT22;12309;51.450;-2.624;2022-09-09T04:05:54;15.20;99.90
24148;DHT22;12309;51.450;-2.624;2022-09-09T04:08:21;15.20;99.90
24148;DHT22;12309;51.450;-2.624;2022-09-09T04:10:48;15.20;99.90
24148;DHT22;12309;51.450;-2.624;2022-09-09T04:13:14;15.30;99.90
24148;DHT22;12309;51.450;-2.624;2022-09-09T04:15:44;15.20;99.90
24148;DHT22;12309;51.450;-2.624;2022-09-09T04:18:10;15.20;99.90
24148;DHT22;12309;51.450;-2.624;2022-09-09T04:20:37;15.10;99.90
24148;DHT22;12309;51.450;-2.624;2022-09-09T04:23:03;15.20;99.90
24148;DHT22;12309;51.450;-2.624;2022-09-09T04:27:56;15.20;99.90
24148;DHT22;12309;51.450;-2.624;2022-09-09T04:30:22;15.00;99.90
24148;DHT22;12309;51.450;-2.624;2022-09-09T04:32:48;15.20;99.90
24148;DHT22;12309;51.450;-2.624;2022-09-09T04:35:14;15.30;99.90
24148;DHT22;12309;51.450;-2.624;2022-09-09T04:40:07;15.30;99.90
24148;DHT22;12309;51.450;-2.624;2022-09-09T04:42:38;15.30;99.90
24148;DHT22;12309;51.450;-2.624;2022-09-09T04:45:05;15.30;99.90
24148;DHT22;12309;51.450;-2.624;2022-09-09T04:47:32;15.60;99.90
24148;DHT22;12309;51.450;-2.624;2022-09-09T04:49:58;15.30;99.90
24148;DHT22;12309;51.450;-2.624;2022-09-09T04:52:23;15.50;99.90
24148;DHT22;12309;51.450;-2.624;2022-09-09T04:54:49;15.30;99.90
24148;DHT22;12309;51.450;-2.624;2022-09-09T04:57:15;15.30;99.90
24148;DHT22;12309;51.450;-2.624;2022-09-09T04:59:41;15.40;99.90
24148;DHT22;12309;51.450;-2.624;2022-09-09T05:06:58;15.30;99.90
24148;DHT22;12309;51.450;-2.624;2022-09-09T05:09:24;15.30;99.90
24148;DHT22;12309;51.450;-2.624;2022-09-09T05:14:16;15.50;99.90
24148;DHT22;12309;51.450;-2.624;2022-09-09T05:16:44;15.40;99.90
24148;DHT22;12309;51.450;-2.624;2022-09-09T05:19:10;15.40;99.90
24148;DHT22;12309;51.450;-2.624;2022-09-09T05:21:36;15.50;99.90
24148;DHT22;12309;51.450;-2.624;2022-09-09T05:26:28;15.20;99.90
24148;DHT22;12309;51.450;-2.624;2022-09-09T05:28:55;15.50;99.90
24148;DHT22;12309;51.450;-2.624;2022-09-09T05:31:21;15.00;99.90
24148;DHT22;12309;51.450;-2.624;2022-09-09T05:33:47;15.30;99.90
24148;DHT22;12309;51.450;-2.624;2022-09-09T05:36:19;15.50;99.90
24148;DHT22;12309;51.450;-2.624;2022-09-09T05:38:46;15.30;99.90
24148;DHT22;12309;51.450;-2.624;2022-09-09T05:41:13;15.40;99.90
24148;DHT22;12309;51.450;-2.624;2022-09-09T05:43:41;15.30;99.90
24148;DHT22;12309;51.450;-2.624;2022-09-09T05:46:11;15.20;99.90
24148;DHT22;12309;51.450;-2.624;2022-09-09T05:48:42;15.20;99.90
24148;DHT22;12309;51.450;-2.624;2022-09-09T05:51:12;15.20;99.90
24148;DHT22;12309;51.450;-2.624;2022-09-09T05:53:38;15.30;99.90
24148;DHT22;12309;51.450;-2.624;2022-09-09T05:56:06;15.50;99.90
24148;DHT22;12309;51.450;-2.624;2022-09-09T05:58:33;15.50;99.90
24148;DHT22;12309;51.450;-2.624;2022-09-09T06:03:33;15.40;99.90
24148;DHT22;12309;51.450;-2.624;2022-09-09T06:06:00;15.40;99.90
24148;DHT22;12309;51.450;-2.624;2022-09-09T06:08:26;15.40;99.90
24148;DHT22;12309;51.450;-2.624;2022-09-09T06:13:18;15.50;99.90
24148;DHT22;12309;51.450;-2.624;2022-09-09T06:15:51;15.40;99.90
24148;DHT22;12309;51.450;-2.624;2022-09-09T06:18:18;15.60;99.90
24148;DHT22;12309;51.450;-2.624;2022-09-09T06:20:56;15.40;99.90
24148;DHT22;12309;51.450;-2.624;2022-09-09T06:23:22;15.70;99.90
24148;DHT22;12309;51.450;-2.624;2022-09-09T06:25:48;15.80;99.90
24148;DHT22;12309;51.450;-2.624;2022-09-09T06:28:15;15.70;99.90
24148;DHT22;12309;51.450;-2.624;2022-09-09T06:30:42;15.50;99.90
24148;DHT22;12309;51.450;-2.624;2022-09-09T06:33:08;15.60;99.90
24148;DHT22;12309;51.450;-2.624;2022-09-09T06:35:35;15.70;99.90
24148;DHT22;12309;51.450;-2.624;2022-09-09T06:38:00;15.70;99.90
24148;DHT22;12309;51.450;-2.624;2022-09-09T06:42:52;16.00;99.90
24148;DHT22;12309;51.450;-2.624;2022-09-09T06:47:44;15.60;99.90
24148;DHT22;12309;51.450;-2.624;2022-09-09T06:50:10;16.10;99.90
24148;DHT22;12309;51.450;-2.624;2022-09-09T06:52:36;15.60;99.90
24148;DHT22;12309;51.450;-2.624;2022-09-09T06:55:03;15.80;99.90
24148;DHT22;12309;51.450;-2.624;2022-09-09T06:57:29;16.00;99.90
24148;DHT22;12309;51.450;-2.624;2022-09-09T06:59:54;16.50;99.90
24148;DHT22;12309;51.450;-2.624;2022-09-09T07:02:20;16.10;99.90
24148;DHT22;12309;51.450;-2.624;2022-09-09T07:04:46;16.20;99.90
24148;DHT22;12309;51.450;-2.624;2022-09-09T07:09:40;16.20;99.90
24148;DHT22;12309;51.450;-2.624;2022-09-09T07:12:06;16.40;99.90
24148;DHT22;12309;51.450;-2.624;2022-09-09T07:19:26;16.50;99.90
24148;DHT22;12309;51.450;-2.624;2022-09-09T07:21:51;16.50;99.90
24148;DHT22;12309;51.450;-2.624;2022-09-09T07:24:17;16.70;99.90
24148;DHT22;12309;51.450;-2.624;2022-09-09T07:29:12;16.90;99.90
24148;DHT22;12309;51.450;-2.624;2022-09-09T07:31:41;17.60;99.90
24148;DHT22;12309;51.450;-2.624;2022-09-09T07:34:08;17.20;99.90
24148;DHT22;12309;51.450;-2.624;2022-09-09T07:36:38;16.90;99.90
24148;DHT22;12309;51.450;-2.624;2022-09-09T07:39:09;17.10;99.90
24148;DHT22;12309;51.450;-2.624;2022-09-09T07:41:36;17.00;99.90
24148;DHT22;12309;51.450;-2.624;2022-09-09T07:44:15;17.10;99.90
24148;DHT22;12309;51.450;-2.624;2022-09-09T07:46:42;17.00;99.90
24148;DHT22;12309;51.450;-2.624;2022-09-09T07:49:09;17.00;99.90
24148;DHT22;12309;51.450;-2.624;2022-09-09T07:51:37;17.00;99.90
24148;DHT22;12309;51.450;-2.624;2022-09-09T07:54:06;17.00;99.90
24148;DHT22;12309;51.450;-2.624;2022-09-09T07:56:33;17.10;99.90
24148;DHT22;12309;51.450;-2.624;2022-09-09T07:58:59;17.10;99.90
24148;DHT22;12309;51.450;-2.624;2022-09-09T08:01:33;17.10;99.90
24148;DHT22;12309;51.450;-2.624;2022-09-09T08:04:05;17.50;99.90
24148;DHT22;12309;51.450;-2.624;2022-09-09T08:06:37;17.70;99.90
24148;DHT22;12309;51.450;-2.624;2022-09-09T08:09:03;18.20;99.90
24148;DHT22;12309;51.450;-2.624;2022-09-09T08:11:30;18.60;99.90
24148;DHT22;12309;51.450;-2.624;2022-09-09T08:13:56;18.60;99.90
24148;DHT22;12309;51.450;-2.624;2022-09-09T08:16:24;18.60;99.90
24148;DHT22;12309;51.450;-2.624;2022-09-09T08:18:52;18.40;99.90
24148;DHT22;12309;51.450;-2.624;2022-09-09T08:21:26;18.50;99.90
24148;DHT22;12309;51.450;-2.624;2022-09-09T08:23:54;18.60;99.90
24148;DHT22;12309;51.450;-2.624;2022-09-09T08:26:44;18.40;99.90
24148;DHT22;12309;51.450;-2.624;2022-09-09T08:29:11;18.30;99.90
24148;DHT22;12309;51.450;-2.624;2022-09-09T08:31:39;18.20;99.90
24148;DHT22;12309;51.450;-2.624;2022-09-09T08:34:06;18.20;99.90
24148;DHT22;12309;51.450;-2.624;2022-09-09T08:36:38;18.20;99.90
24148;DHT22;12309;51.450;-2.624;2022-09-09T08:39:06;18.20;99.90
24148;DHT22;12309;51.450;-2.624;2022-09-09T08:44:13;17.90;99.90
24148;DHT22;12309;51.450;-2.624;2022-09-09T08:52:22;17.80;99.90
24148;DHT22;12309;51.450;-2.624;2022-09-09T08:54:49;17.60;99.90
24148;DHT22;12309;51.450;-2.624;2022-09-09T08:57:24;17.70;99.90
24148;DHT22;12309;51.450;-2.624;2022-09-09T08:59:54;17.80;99.90
24148;DHT22;12309;51.450;-2.624;2022-09-09T09:03:22;17.80;99.90
24148;DHT22;12309;51.450;-2.624;2022-09-09T09:05:40;17.60;99.90
24148;DHT22;12309;51.450;-2.624;2022-09-09T09:08:25;17.80;99.90
24148;DHT22;12309;51.450;-2.624;2022-09-09T09:10:56;17.70;99.90
24148;DHT22;12309;51.450;-2.624;2022-09-09T09:13:44;17.80;99.90
24148;DHT22;12309;51.450;-2.624;2022-09-09T09:18:56;17.90;99.90
24148;DHT22;12309;51.450;-2.624;2022-09-09T09:21:43;17.40;99.90
24148;DHT22;12309;51.450;-2.624;2022-09-09T09:24:25;17.30;99.90
24148;DHT22;12309;51.450;-2.624;2022-09-09T09:26:52;17.40;99.90
24148;DHT22;12309;51.450;-2.624;2022-09-09T09:29:19;17.60;99.90
24148;DHT22;12309;51.450;-2.624;2022-09-09T09:31:56;17.00;99.90
24148;DHT22;12309;51.450;-2.624;2022-09-09T09:34:24;17.40;99.90
24148;DHT22;12309;51.450;-2.624;2022-09-09T09:36:57;17.40;99.90
24148;DHT22;12309;51.450;-2.624;2022-09-09T09:39:32;17.30;99.90
24148;DHT22;12309;51.450;-2.624;2022-09-09T09:42:16;17.60;99.90
24148;DHT22;12309;51.450;-2.624;2022-09-09T09:44:43;17.40;99.90
24148;DHT22;12309;51.450;-2.624;2022-09-09T09:47:11;17.40;99.90
24148;DHT22;12309;51.450;-2.624;2022-09-09T09:49:38;17.40;99.90
24148;DHT22;12309;51.450;-2.624;2022-09-09T09:52:05;17.60;99.90
24148;DHT22;12309;51.450;-2.624;2022-09-09T09:54:34;17.60;99.90
24148;DHT22;12309;51.450;-2.624;2022-09-09T09:57:14;17.70;99.90
24148;DHT22;12309;51.450;-2.624;2022-09-09T09:59:40;17.70;99.90
24148;DHT22;12309;51.450;-2.624;2022-09-09T10:02:31;17.70;99.90
24148;DHT22;12309;51.450;-2.624;2022-09-09T10:07:39;18.00;99.90
24148;DHT22;12309;51.450;-2.624;2022-09-09T10:10:05;17.70;99.90
24148;DHT22;12309;51.450;-2.624;2022-09-09T10:13:06;17.80;99.90
24148;DHT22;12309;51.450;-2.624;2022-09-09T10:15:52;17.60;99.90
24148;DHT22;12309;51.450;-2.624;2022-09-09T10:20:58;17.80;99.90
24148;DHT22;12309;51.450;-2.624;2022-09-09T10:28:55;17.40;99.90
24148;DHT22;12309;51.450;-2.624;2022-09-09T10:31:47;17.50;99.90
24148;DHT22;12309;51.450;-2.624;2022-09-09T10:37:11;17.80;99.90
24148;DHT22;12309;51.450;-2.624;2022-09-09T10:39:43;18.10;99.90
24148;DHT22;12309;51.450;-2.624;2022-09-09T10:42:12;18.30;99.90
24148;DHT22;12309;51.450;-2.624;2022-09-09T10:47:47;18.20;99.90
24148;DHT22;12309;51.450;-2.624;2022-09-09T10:50:42;18.10;99.90
24148;DHT22;12309;51.450;-2.624;2022-09-09T10:53:35;18.10;99.90
24148;DHT22;12309;51.450;-2.624;2022-09-09T10:56:10;18.50;99.90
24148;DHT22;12309;51.450;-2.624;2022-09-09T11:01:31;19.00;99.90
24148;DHT22;12309;51.450;-2.624;2022-09-09T11:06:58;19.00;99.90
24148;DHT22;12309;51.450;-2.624;2022-09-09T11:09:35;19.20;99.90
24148;DHT22;12309;51.450;-2.624;2022-09-09T11:12:03;19.10;99.90
24148;DHT22;12309;51.450;-2.624;2022-09-09T11:14:41;19.10;99.90
24148;DHT22;12309;51.450;-2.624;2022-09-09T11:17:18;19.50;99.90
24148;DHT22;12309;51.450;-2.624;2022-09-09T11:19:46;19.80;99.90
24148;DHT22;12309;51.450;-2.624;2022-09-09T11:22:32;20.70;99.90
24148;DHT22;12309;51.450;-2.624;2022-09-09T11:25:09;22.20;99.90
24148;DHT22;12309;51.450;-2.624;2022-09-09T11:41:07;26.10;99.90
24148;DHT22;12309;51.450;-2.624;2022-09-09T11:43:52;26.20;99.90
24148;DHT22;12309;51.450;-2.624;2022-09-09T11:46:22;25.50;99.90
24148;DHT22;12309;51.450;-2.624;2022-09-09T11:49:01;25.30;99.90
24148;DHT22;12309;51.450;-2.624;2022-09-09T11:51:29;24.20;99.90
24148;DHT22;12309;51.450;-2.624;2022-09-09T11:53:58;23.70;99.90
24148;DHT22;12309;51.450;-2.624;2022-09-09T11:56:30;23.60;99.90
24148;DHT22;12309;51.450;-2.624;2022-09-09T11:59:04;23.60;99.90
24148;DHT22;12309;51.450;-2.624;2022-09-09T12:01:42;23.40;99.90
24148;DHT22;12309;51.450;-2.624;2022-09-09T12:07:00;25.30;99.90
24148;DHT22;12309;51.450;-2.624;2022-09-09T12:12:04;25.20;99.90
24148;DHT22;12309;51.450;-2.624;2022-09-09T12:17:27;24.10;99.90
24148;DHT22;12309;51.450;-2.624;2022-09-09T12:25:20;22.30;99.90
24148;DHT22;12309;51.450;-2.624;2022-09-09T12:28:15;22.10;99.90
24148;DHT22;12309;51.450;-2.624;2022-09-09T12:33:38;21.30;99.90
24148;DHT22;12309;51.450;-2.624;2022-09-09T12:36:18;21.70;99.90
24148;DHT22;12309;51.450;-2.624;2022-09-09T12:38:45;21.50;99.90
24148;DHT22;12309;51.450;-2.624;2022-09-09T12:41:24;21.20;99.90
24148;DHT22;12309;51.450;-2.624;2022-09-09T12:43:51;20.60;99.90
24148;DHT22;12309;51.450;-2.624;2022-09-09T12:46:34;20.30;99.90
24148;DHT22;12309;51.450;-2.624;2022-09-09T12:49:02;19.90;99.90
24148;DHT22;12309;51.450;-2.624;2022-09-09T12:51:31;19.10;99.90
24148;DHT22;12309;51.450;-2.624;2022-09-09T12:53:59;19.20;99.90
24148;DHT22;12309;51.450;-2.624;2022-09-09T12:56:30;19.20;99.90
24148;DHT22;12309;51.450;-2.624;2022-09-09T12:58:57;19.20;99.90
24148;DHT22;12309;51.450;-2.624;2022-09-09T13:01:25;19.50;99.90
24148;DHT22;12309;51.450;-2.624;2022-09-09T13:03:52;19.70;99.90
24148;DHT22;12309;51.450;-2.624;2022-09-09T13:06:25;19.30;99.90
24148;DHT22;12309;51.450;-2.624;2022-09-09T13:08:56;19.60;99.90
24148;DHT22;12309;51.450;-2.624;2022-09-09T13:11:46;19.50;99.90
24148;DHT22;12309;51.450;-2.624;2022-09-09T13:14:16;19.50;99.90
24148;DHT22;12309;51.450;-2.624;2022-09-09T13:16:57;19.20;99.90
24148;DHT22;12309;51.450;-2.624;2022-09-09T13:21:54;20.10;99.90
24148;DHT22;12309;51.450;-2.624;2022-09-09T13:24:34;20.70;99.90
24148;DHT22;12309;51.450;-2.624;2022-09-09T13:27:01;21.70;99.90
24148;DHT22;12309;51.450;-2.624;2022-09-09T13:29:28;22.60;99.90
24148;DHT22;12309;51.450;-2.624;2022-09-09T13:31:54;23.70;99.90
24148;DHT22;12309;51.450;-2.624;2022-09-09T13:34:29;23.80;99.90
24148;DHT22;12309;51.450;-2.624;2022-09-09T13:37:03;24.20;99.90
24148;DHT22;12309;51.450;-2.624;2022-09-09T13:39:33;25.00;99.90
24148;DHT22;12309;51.450;-2.624;2022-09-09T13:42:00;25.30;99.90
24148;DHT22;12309;51.450;-2.624;2022-09-09T13:44:31;25.40;99.90
24148;DHT22;12309;51.450;-2.624;2022-09-09T13:49:30;25.80;99.90
24148;DHT22;12309;51.450;-2.624;2022-09-09T13:52:16;26.00;99.90
24148;DHT22;12309;51.450;-2.624;2022-09-09T13:54:51;25.70;99.90
24148;DHT22;12309;51.450;-2.624;2022-09-09T13:57:23;26.00;99.90
24148;DHT22;12309;51.450;-2.624;2022-09-09T13:59:51;25.40;99.90
24148;DHT22;12309;51.450;-2.624;2022-09-09T14:02:18;25.20;99.90
24148;DHT22;12309;51.450;-2.624;2022-09-09T14:04:44;24.50;99.90
24148;DHT22;12309;51.450;-2.624;2022-09-09T14:07:14;23.90;99.90
24148;DHT22;12309;51.450;-2.624;2022-09-09T14:09:41;23.20;99.90
24148;DHT22;12309;51.450;-2.624;2022-09-09T14:12:11;23.20;99.90
24148;DHT22;12309;51.450;-2.624;2022-09-09T14:14:37;23.40;99.90
24148;DHT22;12309;51.450;-2.624;2022-09-09T14:17:03;23.00;99.90
24148;DHT22;12309;51.450;-2.624;2022-09-09T14:19:29;22.50;99.90
24148;DHT22;12309;51.450;-2.624;2022-09-09T14:21:56;22.20;99.90
24148;DHT22;12309;51.450;-2.624;2022-09-09T14:26:49;22.60;99.90
24148;DHT22;12309;51.450;-2.624;2022-09-09T14:29:14;24.10;99.90
24148;DHT22;12309;51.450;-2.624;2022-09-09T14:31:40;25.90;99.90
24148;DHT22;12309;51.450;-2.624;2022-09-09T14:34:06;27.10;99.90
24148;DHT22;12309;51.450;-2.624;2022-09-09T14:38:57;28.30;99.90
24148;DHT22;12309;51.450;-2.624;2022-09-09T14:41:24;28.10;99.90
24148;DHT22;12309;51.450;-2.624;2022-09-09T14:43:50;28.40;99.90
24148;DHT22;12309;51.450;-2.624;2022-09-09T14:46:18;26.80;99.90
24148;DHT22;12309;51.450;-2.624;2022-09-09T14:51:13;25.60;99.90
24148;DHT22;12309;51.450;-2.624;2022-09-09T14:53:40;24.80;99.90
24148;DHT22;12309;51.450;-2.624;2022-09-09T14:56:12;24.60;99.90
24148;DHT22;12309;51.450;-2.624;2022-09-09T15:01:16;25.20;99.90
24148;DHT22;12309;51.450;-2.624;2022-09-09T15:03:47;26.40;99.90
24148;DHT22;12309;51.450;-2.624;2022-09-09T15:06:14;27.40;99.90
24148;DHT22;12309;51.450;-2.624;2022-09-09T15:08:44;27.50;99.90
24148;DHT22;12309;51.450;-2.624;2022-09-09T15:11:11;28.20;99.90
24148;DHT22;12309;51.450;-2.624;2022-09-09T15:13:38;28.10;99.90
24148;DHT22;12309;51.450;-2.624;2022-09-09T15:16:09;28.20;99.90
24148;DHT22;12309;51.450;-2.624;2022-09-09T15:18:36;28.30;99.90
24148;DHT22;12309;51.450;-2.624;2022-09-09T15:21:05;27.50;99.90
24148;DHT22;12309;51.450;-2.624;2022-09-09T15:23:34;27.70;99.90
24148;DHT22;12309;51.450;-2.624;2022-09-09T15:28:26;27.10;99.90
24148;DHT22;12309;51.450;-2.624;2022-09-09T15:30:53;26.70;99.90
24148;DHT22;12309;51.450;-2.624;2022-09-09T15:33:20;26.60;99.90
24148;DHT22;12309;51.450;-2.624;2022-09-09T15:35:46;26.60;99.90
24148;DHT22;12309;51.450;-2.624;2022-09-09T15:38:13;26.70;99.90
24148;DHT22;12309;51.450;-2.624;2022-09-09T15:40:42;26.90;99.90
24148;DHT22;12309;51.450;-2.624;2022-09-09T15:43:09;26.60;99.90
24148;DHT22;12309;51.450;-2.624;2022-09-09T15:45:36;26.70;99.90
24148;DHT22;12309;51.450;-2.624;2022-09-09T15:48:03;26.50;99.90
24148;DHT22;12309;51.450;-2.624;2022-09-09T15:50:28;26.70;99.90
24148;DHT22;12309;51.450;-2.624;2022-09-09T15:52:58;26.40;99.90
24148;DHT22;12309;51.450;-2.624;2022-09-09T15:55:24;26.20;99.90
24148;DHT22;12309;51.450;-2.624;2022-09-09T15:57:50;26.30;99.90
24148;DHT22;12309;51.450;-2.624;2022-09-09T16:00:18;25.70;99.90
24148;DHT22;12309;51.450;-2.624;2022-09-09T16:02:46;25.70;99.90
24148;DHT22;12309;51.450;-2.624;2022-09-09T16:05:12;24.60;99.90
24148;DHT22;12309;51.450;-2.624;2022-09-09T16:07:37;23.70;99.90
24148;DHT22;12309;51.450;-2.624;2022-09-09T16:10:03;23.80;99.90
24148;DHT22;12309;51.450;-2.624;2022-09-09T16:12:29;24.60;99.90
24148;DHT22;12309;51.450;-2.624;2022-09-09T16:14:55;25.50;99.90
24148;DHT22;12309;51.450;-2.624;2022-09-09T16:17:21;25.80;99.90
24148;DHT22;12309;51.450;-2.624;2022-09-09T16:19:46;26.20;99.90
24148;DHT22;12309;51.450;-2.624;2022-09-09T16:22:12;25.80;99.90
24148;DHT22;12309;51.450;-2.624;2022-09-09T16:24:40;26.10;99.90
24148;DHT22;12309;51.450;-2.624;2022-09-09T16:27:06;26.40;99.90
24148;DHT22;12309;51.450;-2.624;2022-09-09T16:29:32;26.40;99.90
24148;DHT22;12309;51.450;-2.624;2022-09-09T16:31:57;26.40;99.90
24148;DHT22;12309;51.450;-2.624;2022-09-09T16:34:24;26.20;99.90
24148;DHT22;12309;51.450;-2.624;2022-09-09T16:36:50;26.60;99.90
24148;DHT22;12309;51.450;-2.624;2022-09-09T16:39:18;26.70;99.90
24148;DHT22;12309;51.450;-2.624;2022-09-09T16:41:46;26.20;99.90
24148;DHT22;12309;51.450;-2.624;2022-09-09T16:44:14;26.10;99.90
24148;DHT22;12309;51.450;-2.624;2022-09-09T16:46:42;26.00;99.90
24148;DHT22;12309;51.450;-2.624;2022-09-09T16:49:10;25.30;99.90
24148;DHT22;12309;51.450;-2.624;2022-09-09T16:51:41;24.50;99.90
24148;DHT22;12309;51.450;-2.624;2022-09-09T16:54:08;23.50;99.90
24148;DHT22;12309;51.450;-2.624;2022-09-09T16:56:36;23.20;99.90
24148;DHT22;12309;51.450;-2.624;2022-09-09T16:59:07;22.60;99.90
24148;DHT22;12309;51.450;-2.624;2022-09-09T17:01:36;22.30;99.90
24148;DHT22;12309;51.450;-2.624;2022-09-09T17:04:08;22.10;99.90
24148;DHT22;12309;51.450;-2.624;2022-09-09T17:06:35;21.80;99.90
24148;DHT22;12309;51.450;-2.624;2022-09-09T17:09:08;21.60;99.90
24148;DHT22;12309;51.450;-2.624;2022-09-09T17:11:35;21.40;99.90
24148;DHT22;12309;51.450;-2.624;2022-09-09T17:14:01;21.30;99.90
24148;DHT22;12309;51.450;-2.624;2022-09-09T17:16:29;21.10;99.90
24148;DHT22;12309;51.450;-2.624;2022-09-09T17:18:56;20.90;99.90
24148;DHT22;12309;51.450;-2.624;2022-09-09T17:21:24;20.70;99.90
24148;DHT22;12309;51.450;-2.624;2022-09-09T17:23:51;20.40;99.90
24148;DHT22;12309;51.450;-2.624;2022-09-09T17:26:19;20.30;99.90
24148;DHT22;12309;51.450;-2.624;2022-09-09T17:28:45;20.00;99.90
24148;DHT22;12309;51.450;-2.624;2022-09-09T17:31:13;19.90;99.90
24148;DHT22;12309;51.450;-2.624;2022-09-09T17:33:43;19.70;99.90
24148;DHT22;12309;51.450;-2.624;2022-09-09T17:36:18;19.60;99.90
24148;DHT22;12309;51.450;-2.624;2022-09-09T17:38:44;19.50;99.90
24148;DHT22;12309;51.450;-2.624;2022-09-09T17:41:19;19.50;99.90
24148;DHT22;12309;51.450;-2.624;2022-09-09T17:43:46;19.40;99.90
24148;DHT22;12309;51.450;-2.624;2022-09-09T17:46:24;19.30;99.90
24148;DHT22;12309;51.450;-2.624;2022-09-09T17:48:52;19.30;99.90
24148;DHT22;12309;51.450;-2.624;2022-09-09T17:51:21;19.20;99.90
24148;DHT22;12309;51.450;-2.624;2022-09-09T17:53:50;19.20;99.90
24148;DHT22;12309;51.450;-2.624;2022-09-09T17:56:18;19.10;99.90
24148;DHT22;12309;51.450;-2.624;2022-09-09T17:58:48;19.10;99.90
24148;DHT22;12309;51.450;-2.624;2022-09-09T18:01:23;19.10;99.90
24148;DHT22;12309;51.450;-2.624;2022-09-09T18:03:49;19.00;99.90